sensor_id;sensor_type;location;lat;lon;timestamp;P1;durP1;ratioP1;P2;durP2;ratioP2
10947;SDS011;5526;42.070;24.752;2022-10-26T00:00:31;24.67;;;9.88;;
10947;SDS011;5526;42.070;24.752;2022-10-26T00:02:58;19.90;;;9.63;;
10947;SDS011;5526;42.070;24.752;2022-10-26T00:05:26;23.80;;;10.13;;
10947;SDS011;5526;42.070;24.752;2022-10-26T00:07:55;20.52;;;10.07;;
10947;SDS011;5526;42.070;24.752;2022-10-26T00:10:22;21.60;;;9.85;;
10947;SDS011;5526;42.070;24.752;2022-10-26T00:12:50;18.67;;;8.68;;
10947;SDS011;5526;42.070;24.752;2022-10-26T00:15:18;14.73;;;6.93;;
10947;SDS011;5526;42.070;24.752;2022-10-26T00:17:46;14.63;;;5.30;;
10947;SDS011;5526;42.070;24.752;2022-10-26T00:20:15;10.70;;;5.30;;
10947;SDS011;5526;42.070;24.752;2022-10-26T00:22:42;18.83;;;7.05;;
10947;SDS011;5526;42.070;24.752;2022-10-26T00:25:11;16.33;;;8.43;;
10947;SDS011;5526;42.070;24.752;2022-10-26T00:27:39;17.13;;;7.97;;
10947;SDS011;5526;42.070;24.752;2022-10-26T00:30:06;12.60;;;6.43;;
10947;SDS011;5526;42.070;24.752;2022-10-26T00:32:35;18.02;;;6.25;;
10947;SDS011;5526;42.070;24.752;2022-10-26T00:35:03;15.60;;;5.60;;
10947;SDS011;5526;42.070;24.752;2022-10-26T00:37:31;15.63;;;5.45;;
10947;SDS011;5526;42.070;24.752;2022-10-26T00:39:59;14.52;;;4.70;;
10947;SDS011;5526;42.070;24.752;2022-10-26T00:42:28;12.93;;;4.85;;
10947;SDS011;5526;42.070;24.752;2022-10-26T00:44:56;9.25;;;4.20;;
10947;SDS011;5526;42.070;24.752;2022-10-26T00:47:33;12.95;;;4.18;;
10947;SDS011;5526;42.070;24.752;2022-10-26T00:50:07;11.57;;;4.05;;
10947;SDS011;5526;42.070;24.752;2022-10-26T00:52:37;14.10;;;4.72;;
10947;SDS011;5526;42.070;24.752;2022-10-26T00:55:05;13.10;;;4.13;;
10947;SDS011;5526;42.070;24.752;2022-10-26T00:57:36;11.65;;;4.15;;
10947;SDS011;5526;42.070;24.752;2022-10-26T01:00:05;12.48;;;4.35;;
10947;SDS011;5526;42.070;24.752;2022-10-26T01:02:34;13.25;;;5.55;;
10947;SDS011;5526;42.070;24.752;2022-10-26T01:05:02;9.30;;;4.30;;
10947;SDS011;5526;42.070;24.752;2022-10-26T01:07:32;11.70;;;4.57;;
10947;SDS011;5526;42.070;24.752;2022-10-26T01:10:00;10.20;;;4.18;;
10947;SDS011;5526;42.070;24.752;2022-10-26T01:12:28;11.52;;;4.05;;
10947;SDS011;5526;42.070;24.752;2022-10-26T01:14:57;14.23;;;4.47;;
10947;SDS011;5526;42.070;24.752;2022-10-26T01:17:28;14.43;;;3.95;;
10947;SDS011;5526;42.070;24.752;2022-10-26T01:20:17;10.82;;;4.25;;
10947;SDS011;5526;42.070;24.752;2022-10-26T01:23:07;13.88;;;4.60;;
10947;SDS011;5526;42.070;24.752;2022-10-26T01:25:51;10.50;;;4.18;;
10947;SDS011;5526;42.070;24.752;2022-10-26T01:28:32;13.98;;;4.72;;
10947;SDS011;5526;42.070;24.752;2022-10-26T01:31:14;13.40;;;4.53;;
10947;SDS011;5526;42.070;24.752;2022-10-26T01:33:53;12.80;;;4.35;;
10947;SDS011;5526;42.070;24.752;2022-10-26T01:36:28;9.70;;;4.35;;
10947;SDS011;5526;42.070;24.752;2022-10-26T01:39:04;12.75;;;3.97;;
10947;SDS011;5526;42.070;24.752;2022-10-26T01:41:37;11.63;;;3.60;;
10947;SDS011;5526;42.070;24.752;2022-10-26T01:44:12;10.70;;;3.95;;
10947;SDS011;5526;42.070;24.752;2022-10-26T01:46:45;13.10;;;4.10;;
10947;SDS011;5526;42.070;24.752;2022-10-26T01:49:17;11.10;;;3.70;;
10947;SDS011;5526;42.070;24.752;2022-10-26T01:51:48;10.05;;;4.10;;
10947;SDS011;5526;42.070;24.752;2022-10-26T01:54:16;11.90;;;4.22;;
10947;SDS011;5526;42.070;24.752;2022-10-26T01:56:44;11.00;;;4.90;;
10947;SDS011;5526;42.070;24.752;2022-10-26T01:59:21;13.18;;;4.40;;
10947;SDS011;5526;42.070;24.752;2022-10-26T02:05:12;8.23;;;3.90;;
10947;SDS011;5526;42.070;24.752;2022-10-26T02:07:53;13.55;;;3.85;;
10947;SDS011;5526;42.070;24.752;2022-10-26T02:10:30;10.65;;;3.97;;
10947;SDS011;5526;42.070;24.752;2022-10-26T02:13:09;12.15;;;4.00;;
10947;SDS011;5526;42.070;24.752;2022-10-26T02:15:44;10.07;;;3.83;;
10947;SDS011;5526;42.070;24.752;2022-10-26T02:18:22;12.10;;;4.18;;
10947;SDS011;5526;42.070;24.752;2022-10-26T02:20:58;11.00;;;4.93;;
10947;SDS011;5526;42.070;24.752;2022-10-26T02:23:31;11.68;;;4.32;;
10947;SDS011;5526;42.070;24.752;2022-10-26T02:26:03;12.10;;;4.43;;
10947;SDS011;5526;42.070;24.752;2022-10-26T02:28:34;10.48;;;4.38;;
10947;SDS011;5526;42.070;24.752;2022-10-26T02:31:12;8.38;;;3.80;;
10947;SDS011;5526;42.070;24.752;2022-10-26T02:33:42;13.25;;;4.50;;
10947;SDS011;5526;42.070;24.752;2022-10-26T02:36:16;10.55;;;4.68;;
10947;SDS011;5526;42.070;24.752;2022-10-26T02:38:48;9.35;;;3.72;;
10947;SDS011;5526;42.070;24.752;2022-10-26T02:41:18;10.07;;;4.18;;
10947;SDS011;5526;42.070;24.752;2022-10-26T02:43:53;13.20;;;4.63;;
10947;SDS011;5526;42.070;24.752;2022-10-26T02:46:28;12.68;;;3.97;;
10947;SDS011;5526;42.070;24.752;2022-10-26T02:48:56;10.07;;;4.43;;
10947;SDS011;5526;42.070;24.752;2022-10-26T02:51:27;11.23;;;5.15;;
10947;SDS011;5526;42.070;24.752;2022-10-26T02:54:00;10.85;;;4.35;;
10947;SDS011;5526;42.070;24.752;2022-10-26T02:56:39;9.95;;;4.57;;
10947;SDS011;5526;42.070;24.752;2022-10-26T02:59:12;11.15;;;4.07;;
10947;SDS011;5526;42.070;24.752;2022-10-26T03:01:41;11.52;;;4.47;;
10947;SDS011;5526;42.070;24.752;2022-10-26T03:04:11;10.02;;;4.28;;
10947;SDS011;5526;42.070;24.752;2022-10-26T03:06:45;12.43;;;4.53;;
10947;SDS011;5526;42.070;24.752;2022-10-26T03:09:18;10.90;;;4.40;;
10947;SDS011;5526;42.070;24.752;2022-10-26T03:11:46;12.32;;;4.05;;
10947;SDS011;5526;42.070;24.752;2022-10-26T03:14:13;11.32;;;4.53;;
10947;SDS011;5526;42.070;24.752;2022-10-26T03:16:41;14.05;;;4.18;;
10947;SDS011;5526;42.070;24.752;2022-10-26T03:19:08;12.80;;;4.88;;
10947;SDS011;5526;42.070;24.752;2022-10-26T03:21:36;13.25;;;4.32;;
10947;SDS011;5526;42.070;24.752;2022-10-26T03:24:05;10.73;;;4.05;;
10947;SDS011;5526;42.070;24.752;2022-10-26T03:26:33;12.77;;;4.55;;
10947;SDS011;5526;42.070;24.752;2022-10-26T03:29:01;11.40;;;4.40;;
10947;SDS011;5526;42.070;24.752;2022-10-26T03:31:29;8.30;;;4.15;;
10947;SDS011;5526;42.070;24.752;2022-10-26T03:33:56;8.85;;;4.13;;
10947;SDS011;5526;42.070;24.752;2022-10-26T03:36:24;8.43;;;4.13;;
10947;SDS011;5526;42.070;24.752;2022-10-26T03:38:52;11.90;;;3.60;;
10947;SDS011;5526;42.070;24.752;2022-10-26T03:41:21;8.85;;;3.92;;
10947;SDS011;5526;42.070;24.752;2022-10-26T03:43:49;7.75;;;3.97;;
10947;SDS011;5526;42.070;24.752;2022-10-26T03:46:16;8.23;;;3.90;;
10947;SDS011;5526;42.070;24.752;2022-10-26T03:48:44;11.55;;;3.80;;
10947;SDS011;5526;42.070;24.752;2022-10-26T03:51:12;7.75;;;3.47;;
10947;SDS011;5526;42.070;24.752;2022-10-26T03:53:39;12.38;;;4.15;;
10947;SDS011;5526;42.070;24.752;2022-10-26T03:56:07;11.70;;;4.43;;
10947;SDS011;5526;42.070;24.752;2022-10-26T03:58:36;11.30;;;4.22;;
10947;SDS011;5526;42.070;24.752;2022-10-26T04:01:03;13.70;;;3.90;;
10947;SDS011;5526;42.070;24.752;2022-10-26T04:03:31;10.80;;;3.95;;
10947;SDS011;5526;42.070;24.752;2022-10-26T04:05:59;12.60;;;4.18;;
10947;SDS011;5526;42.070;24.752;2022-10-26T04:08:27;13.13;;;5.00;;
10947;SDS011;5526;42.070;24.752;2022-10-26T04:10:54;10.45;;;3.78;;
10947;SDS011;5526;42.070;24.752;2022-10-26T04:13:22;9.73;;;3.88;;
10947;SDS011;5526;42.070;24.752;2022-10-26T04:15:51;10.25;;;4.60;;
10947;SDS011;5526;42.070;24.752;2022-10-26T04:18:19;10.98;;;3.88;;
10947;SDS011;5526;42.070;24.752;2022-10-26T04:20:46;12.35;;;4.28;;
10947;SDS011;5526;42.070;24.752;2022-10-26T04:23:15;9.10;;;4.18;;
10947;SDS011;5526;42.070;24.752;2022-10-26T04:25:44;13.10;;;4.72;;
10947;SDS011;5526;42.070;24.752;2022-10-26T04:28:12;12.43;;;3.90;;
10947;SDS011;5526;42.070;24.752;2022-10-26T04:30:40;16.23;;;4.70;;
10947;SDS011;5526;42.070;24.752;2022-10-26T04:33:09;14.57;;;4.13;;
10947;SDS011;5526;42.070;24.752;2022-10-26T04:35:36;8.95;;;4.18;;
10947;SDS011;5526;42.070;24.752;2022-10-26T04:38:04;8.68;;;3.72;;
10947;SDS011;5526;42.070;24.752;2022-10-26T04:40:33;11.55;;;4.05;;
10947;SDS011;5526;42.070;24.752;2022-10-26T04:43:01;14.50;;;4.85;;
10947;SDS011;5526;42.070;24.752;2022-10-26T04:45:28;8.73;;;4.35;;
10947;SDS011;5526;42.070;24.752;2022-10-26T04:48:00;12.82;;;4.50;;
10947;SDS011;5526;42.070;24.752;2022-10-26T04:50:30;13.70;;;4.72;;
10947;SDS011;5526;42.070;24.752;2022-10-26T04:52:58;11.70;;;4.70;;
10947;SDS011;5526;42.070;24.752;2022-10-26T04:55:25;10.38;;;4.88;;
10947;SDS011;5526;42.070;24.752;2022-10-26T04:57:53;10.18;;;4.47;;
10947;SDS011;5526;42.070;24.752;2022-10-26T05:00:20;6.78;;;4.38;;
10947;SDS011;5526;42.070;24.752;2022-10-26T05:02:48;6.68;;;4.00;;
10947;SDS011;5526;42.070;24.752;2022-10-26T05:05:16;14.90;;;4.63;;
10947;SDS011;5526;42.070;24.752;2022-10-26T05:07:46;8.02;;;4.70;;
10947;SDS011;5526;42.070;24.752;2022-10-26T05:10:20;25.20;;;9.68;;
10947;SDS011;5526;42.070;24.752;2022-10-26T05:12:49;11.80;;;4.45;;
10947;SDS011;5526;42.070;24.752;2022-10-26T05:15:17;9.70;;;4.30;;
10947;SDS011;5526;42.070;24.752;2022-10-26T05:17:45;7.28;;;4.57;;
10947;SDS011;5526;42.070;24.752;2022-10-26T05:20:12;9.43;;;4.53;;
10947;SDS011;5526;42.070;24.752;2022-10-26T05:22:40;11.13;;;4.45;;
10947;SDS011;5526;42.070;24.752;2022-10-26T05:25:09;10.95;;;4.20;;
10947;SDS011;5526;42.070;24.752;2022-10-26T05:27:37;7.50;;;3.97;;
10947;SDS011;5526;42.070;24.752;2022-10-26T05:30:05;7.78;;;3.92;;
10947;SDS011;5526;42.070;24.752;2022-10-26T05:32:34;8.05;;;4.18;;
10947;SDS011;5526;42.070;24.752;2022-10-26T05:35:02;10.30;;;4.35;;
10947;SDS011;5526;42.070;24.752;2022-10-26T05:37:30;7.82;;;4.10;;
10947;SDS011;5526;42.070;24.752;2022-10-26T05:39:58;7.25;;;4.13;;
10947;SDS011;5526;42.070;24.752;2022-10-26T05:42:27;9.65;;;4.25;;
10947;SDS011;5526;42.070;24.752;2022-10-26T05:44:55;7.63;;;3.75;;
10947;SDS011;5526;42.070;24.752;2022-10-26T05:47:22;9.82;;;4.10;;
10947;SDS011;5526;42.070;24.752;2022-10-26T05:49:50;8.77;;;4.40;;
10947;SDS011;5526;42.070;24.752;2022-10-26T05:52:18;6.30;;;3.67;;
10947;SDS011;5526;42.070;24.752;2022-10-26T05:54:45;7.57;;;3.70;;
10947;SDS011;5526;42.070;24.752;2022-10-26T05:57:13;9.48;;;3.85;;
10947;SDS011;5526;42.070;24.752;2022-10-26T05:59:43;7.20;;;3.55;;
10947;SDS011;5526;42.070;24.752;2022-10-26T06:02:13;7.15;;;3.13;;
10947;SDS011;5526;42.070;24.752;2022-10-26T06:04:49;5.78;;;3.75;;
10947;SDS011;5526;42.070;24.752;2022-10-26T06:07:20;7.82;;;3.38;;
10947;SDS011;5526;42.070;24.752;2022-10-26T06:09:52;13.30;;;3.85;;
10947;SDS011;5526;42.070;24.752;2022-10-26T06:12:20;6.10;;;3.80;;
10947;SDS011;5526;42.070;24.752;2022-10-26T06:14:52;8.35;;;3.88;;
10947;SDS011;5526;42.070;24.752;2022-10-26T06:17:30;12.70;;;3.72;;
10947;SDS011;5526;42.070;24.752;2022-10-26T06:20:14;9.30;;;3.50;;
10947;SDS011;5526;42.070;24.752;2022-10-26T06:22:54;8.93;;;3.42;;
10947;SDS011;5526;42.070;24.752;2022-10-26T06:25:34;6.28;;;3.63;;
10947;SDS011;5526;42.070;24.752;2022-10-26T06:28:15;9.63;;;3.47;;
10947;SDS011;5526;42.070;24.752;2022-10-26T06:30:54;11.07;;;4.00;;
10947;SDS011;5526;42.070;24.752;2022-10-26T06:33:23;8.02;;;3.40;;
10947;SDS011;5526;42.070;24.752;2022-10-26T06:35:59;6.88;;;4.05;;
10947;SDS011;5526;42.070;24.752;2022-10-26T06:38:36;7.25;;;3.28;;
10947;SDS011;5526;42.070;24.752;2022-10-26T06:41:08;4.90;;;3.40;;
10947;SDS011;5526;42.070;24.752;2022-10-26T06:43:39;10.15;;;4.07;;
10947;SDS011;5526;42.070;24.752;2022-10-26T06:46:09;7.57;;;3.63;;
10947;SDS011;5526;42.070;24.752;2022-10-26T06:48:44;6.65;;;3.97;;
10947;SDS011;5526;42.070;24.752;2022-10-26T06:51:18;7.90;;;3.88;;
10947;SDS011;5526;42.070;24.752;2022-10-26T06:53:48;7.25;;;3.53;;
10947;SDS011;5526;42.070;24.752;2022-10-26T06:56:21;7.53;;;3.22;;
10947;SDS011;5526;42.070;24.752;2022-10-26T06:58:49;6.47;;;3.42;;
10947;SDS011;5526;42.070;24.752;2022-10-26T07:01:21;7.95;;;2.92;;
10947;SDS011;5526;42.070;24.752;2022-10-26T07:03:48;6.60;;;3.40;;
10947;SDS011;5526;42.070;24.752;2022-10-26T07:06:16;6.30;;;3.17;;
10947;SDS011;5526;42.070;24.752;2022-10-26T07:08:43;5.57;;;2.80;;
10947;SDS011;5526;42.070;24.752;2022-10-26T07:11:11;7.97;;;3.33;;
10947;SDS011;5526;42.070;24.752;2022-10-26T07:13:38;7.32;;;2.80;;
10947;SDS011;5526;42.070;24.752;2022-10-26T07:16:06;6.50;;;2.97;;
10947;SDS011;5526;42.070;24.752;2022-10-26T07:18:35;5.10;;;3.55;;
10947;SDS011;5526;42.070;24.752;2022-10-26T07:21:03;6.38;;;3.45;;
10947;SDS011;5526;42.070;24.752;2022-10-26T07:23:31;7.75;;;3.50;;
10947;SDS011;5526;42.070;24.752;2022-10-26T07:25:59;11.60;;;3.70;;
10947;SDS011;5526;42.070;24.752;2022-10-26T07:28:26;7.32;;;2.88;;
10947;SDS011;5526;42.070;24.752;2022-10-26T07:30:54;6.72;;;3.20;;
10947;SDS011;5526;42.070;24.752;2022-10-26T07:33:24;10.32;;;3.30;;
10947;SDS011;5526;42.070;24.752;2022-10-26T07:35:53;7.18;;;2.88;;
10947;SDS011;5526;42.070;24.752;2022-10-26T07:38:21;5.38;;;3.00;;
10947;SDS011;5526;42.070;24.752;2022-10-26T07:40:48;5.88;;;3.28;;
10947;SDS011;5526;42.070;24.752;2022-10-26T07:43:18;8.48;;;2.88;;
10947;SDS011;5526;42.070;24.752;2022-10-26T07:45:47;7.72;;;2.88;;
10947;SDS011;5526;42.070;24.752;2022-10-26T07:48:16;7.35;;;3.20;;
10947;SDS011;5526;42.070;24.752;2022-10-26T07:50:43;6.95;;;3.00;;
10947;SDS011;5526;42.070;24.752;2022-10-26T07:53:12;5.78;;;2.95;;
10947;SDS011;5526;42.070;24.752;2022-10-26T07:55:40;8.27;;;3.03;;
10947;SDS011;5526;42.070;24.752;2022-10-26T07:58:07;6.18;;;3.15;;
10947;SDS011;5526;42.070;24.752;2022-10-26T08:00:35;7.47;;;2.90;;
10947;SDS011;5526;42.070;24.752;2022-10-26T08:03:02;6.70;;;3.33;;
10947;SDS011;5526;42.070;24.752;2022-10-26T08:05:30;3.58;;;2.90;;
10947;SDS011;5526;42.070;24.752;2022-10-26T08:07:58;5.70;;;3.22;;
10947;SDS011;5526;42.070;24.752;2022-10-26T08:10:27;4.47;;;2.60;;
10947;SDS011;5526;42.070;24.752;2022-10-26T08:12:54;4.22;;;2.97;;
10947;SDS011;5526;42.070;24.752;2022-10-26T08:15:22;5.07;;;2.63;;
10947;SDS011;5526;42.070;24.752;2022-10-26T08:17:50;5.80;;;2.80;;
10947;SDS011;5526;42.070;24.752;2022-10-26T08:20:17;8.00;;;3.03;;
10947;SDS011;5526;42.070;24.752;2022-10-26T08:22:45;13.80;;;3.10;;
10947;SDS011;5526;42.070;24.752;2022-10-26T08:25:13;5.85;;;3.10;;
10947;SDS011;5526;42.070;24.752;2022-10-26T08:27:42;6.18;;;3.88;;
10947;SDS011;5526;42.070;24.752;2022-10-26T08:30:10;5.73;;;3.00;;
10947;SDS011;5526;42.070;24.752;2022-10-26T08:32:38;6.63;;;4.40;;
10947;SDS011;5526;42.070;24.752;2022-10-26T08:35:06;7.10;;;3.03;;
10947;SDS011;5526;42.070;24.752;2022-10-26T08:37:35;6.82;;;2.90;;
10947;SDS011;5526;42.070;24.752;2022-10-26T08:40:03;5.25;;;3.25;;
10947;SDS011;5526;42.070;24.752;2022-10-26T08:42:32;5.88;;;3.05;;
10947;SDS011;5526;42.070;24.752;2022-10-26T08:45:09;6.03;;;2.50;;
10947;SDS011;5526;42.070;24.752;2022-10-26T08:47:44;2.75;;;1.95;;
10947;SDS011;5526;42.070;24.752;2022-10-26T08:50:17;5.70;;;2.55;;
10947;SDS011;5526;42.070;24.752;2022-10-26T08:52:51;4.32;;;2.25;;
10947;SDS011;5526;42.070;24.752;2022-10-26T08:55:30;2.33;;;1.55;;
10947;SDS011;5526;42.070;24.752;2022-10-26T08:58:06;2.28;;;1.48;;
10947;SDS011;5526;42.070;24.752;2022-10-26T09:00:42;6.25;;;1.70;;
10947;SDS011;5526;42.070;24.752;2022-10-26T09:03:14;3.47;;;1.30;;
10947;SDS011;5526;42.070;24.752;2022-10-26T09:05:52;3.22;;;1.80;;
10947;SDS011;5526;42.070;24.752;2022-10-26T09:08:46;5.53;;;2.00;;
10947;SDS011;5526;42.070;24.752;2022-10-26T09:11:27;5.03;;;2.03;;
10947;SDS011;5526;42.070;24.752;2022-10-26T09:14:09;6.90;;;2.05;;
10947;SDS011;5526;42.070;24.752;2022-10-26T09:16:44;2.92;;;1.63;;
10947;SDS011;5526;42.070;24.752;2022-10-26T09:19:27;3.72;;;1.40;;
10947;SDS011;5526;42.070;24.752;2022-10-26T09:22:19;4.28;;;1.33;;
10947;SDS011;5526;42.070;24.752;2022-10-26T09:24:53;6.03;;;1.67;;
10947;SDS011;5526;42.070;24.752;2022-10-26T09:27:23;5.18;;;1.83;;
10947;SDS011;5526;42.070;24.752;2022-10-26T09:29:54;5.45;;;1.85;;
10947;SDS011;5526;42.070;24.752;2022-10-26T09:32:25;6.95;;;1.67;;
10947;SDS011;5526;42.070;24.752;2022-10-26T09:34:57;3.42;;;1.90;;
10947;SDS011;5526;42.070;24.752;2022-10-26T09:37:29;5.93;;;1.70;;
10947;SDS011;5526;42.070;24.752;2022-10-26T09:40:04;3.65;;;1.98;;
10947;SDS011;5526;42.070;24.752;2022-10-26T09:42:38;2.65;;;1.33;;
10947;SDS011;5526;42.070;24.752;2022-10-26T09:45:12;6.03;;;1.90;;
10947;SDS011;5526;42.070;24.752;2022-10-26T09:47:46;5.07;;;1.80;;
10947;SDS011;5526;42.070;24.752;2022-10-26T09:50:18;3.20;;;1.83;;
10947;SDS011;5526;42.070;24.752;2022-10-26T09:52:51;2.80;;;1.42;;
10947;SDS011;5526;42.070;24.752;2022-10-26T09:55:18;6.03;;;2.35;;
10947;SDS011;5526;42.070;24.752;2022-10-26T09:57:48;6.18;;;2.00;;
10947;SDS011;5526;42.070;24.752;2022-10-26T10:00:18;3.85;;;1.35;;
10947;SDS011;5526;42.070;24.752;2022-10-26T10:02:51;3.38;;;1.58;;
10947;SDS011;5526;42.070;24.752;2022-10-26T10:05:21;1.23;;;1.13;;
10947;SDS011;5526;42.070;24.752;2022-10-26T10:07:50;1.92;;;1.30;;
10947;SDS011;5526;42.070;24.752;2022-10-26T10:10:20;3.10;;;1.33;;
10947;SDS011;5526;42.070;24.752;2022-10-26T10:12:48;3.45;;;1.65;;
10947;SDS011;5526;42.070;24.752;2022-10-26T10:15:18;5.10;;;1.90;;
10947;SDS011;5526;42.070;24.752;2022-10-26T10:17:50;2.03;;;1.50;;
10947;SDS011;5526;42.070;24.752;2022-10-26T10:20:21;2.88;;;1.30;;
10947;SDS011;5526;42.070;24.752;2022-10-26T10:22:52;2.55;;;1.48;;
10947;SDS011;5526;42.070;24.752;2022-10-26T10:25:21;1.40;;;1.30;;
10947;SDS011;5526;42.070;24.752;2022-10-26T10:27:53;4.22;;;1.58;;
10947;SDS011;5526;42.070;24.752;2022-10-26T10:30:21;2.67;;;1.60;;
10947;SDS011;5526;42.070;24.752;2022-10-26T10:35:38;3.05;;;1.52;;
10947;SDS011;5526;42.070;24.752;2022-10-26T10:38:14;4.25;;;1.50;;
10947;SDS011;5526;42.070;24.752;2022-10-26T10:40:49;2.45;;;1.23;;
10947;SDS011;5526;42.070;24.752;2022-10-26T10:43:18;3.30;;;1.20;;
10947;SDS011;5526;42.070;24.752;2022-10-26T10:45:47;5.03;;;1.10;;
10947;SDS011;5526;42.070;24.752;2022-10-26T10:48:19;1.73;;;1.13;;
10947;SDS011;5526;42.070;24.752;2022-10-26T10:50:52;2.17;;;1.20;;
10947;SDS011;5526;42.070;24.752;2022-10-26T10:53:23;3.38;;;1.20;;
10947;SDS011;5526;42.070;24.752;2022-10-26T10:56:01;2.83;;;1.00;;
10947;SDS011;5526;42.070;24.752;2022-10-26T10:58:42;2.67;;;1.30;;
10947;SDS011;5526;42.070;24.752;2022-10-26T11:01:17;2.42;;;1.25;;
10947;SDS011;5526;42.070;24.752;2022-10-26T11:03:57;2.50;;;1.27;;
10947;SDS011;5526;42.070;24.752;2022-10-26T11:06:42;2.10;;;1.58;;
10947;SDS011;5526;42.070;24.752;2022-10-26T11:09:12;5.15;;;1.63;;
10947;SDS011;5526;42.070;24.752;2022-10-26T11:11:43;3.85;;;1.80;;
10947;SDS011;5526;42.070;24.752;2022-10-26T11:14:15;3.35;;;1.60;;
10947;SDS011;5526;42.070;24.752;2022-10-26T11:16:49;2.58;;;1.30;;
10947;SDS011;5526;42.070;24.752;2022-10-26T11:19:24;3.83;;;1.50;;
10947;SDS011;5526;42.070;24.752;2022-10-26T11:21:56;5.07;;;1.80;;
10947;SDS011;5526;42.070;24.752;2022-10-26T11:24:25;2.85;;;1.70;;
10947;SDS011;5526;42.070;24.752;2022-10-26T11:26:56;5.68;;;1.98;;
10947;SDS011;5526;42.070;24.752;2022-10-26T11:29:30;5.43;;;2.00;;
10947;SDS011;5526;42.070;24.752;2022-10-26T11:32:08;6.97;;;1.60;;
10947;SDS011;5526;42.070;24.752;2022-10-26T11:34:45;4.45;;;1.60;;
10947;SDS011;5526;42.070;24.752;2022-10-26T11:37:18;3.22;;;1.50;;
10947;SDS011;5526;42.070;24.752;2022-10-26T11:40:00;6.50;;;1.75;;
10947;SDS011;5526;42.070;24.752;2022-10-26T11:42:32;3.10;;;1.75;;
10947;SDS011;5526;42.070;24.752;2022-10-26T11:45:12;3.08;;;1.75;;
10947;SDS011;5526;42.070;24.752;2022-10-26T11:47:47;2.78;;;1.80;;
10947;SDS011;5526;42.070;24.752;2022-10-26T11:50:21;3.65;;;1.80;;
10947;SDS011;5526;42.070;24.752;2022-10-26T11:52:52;4.97;;;1.80;;
10947;SDS011;5526;42.070;24.752;2022-10-26T11:55:28;2.75;;;1.35;;
10947;SDS011;5526;42.070;24.752;2022-10-26T11:57:59;4.97;;;1.55;;
10947;SDS011;5526;42.070;24.752;2022-10-26T12:00:28;8.35;;;1.67;;
10947;SDS011;5526;42.070;24.752;2022-10-26T12:03:00;1.83;;;1.20;;
10947;SDS011;5526;42.070;24.752;2022-10-26T12:05:41;1.38;;;1.27;;
10947;SDS011;5526;42.070;24.752;2022-10-26T12:08:14;3.05;;;1.30;;
10947;SDS011;5526;42.070;24.752;2022-10-26T12:10:48;3.20;;;1.35;;
10947;SDS011;5526;42.070;24.752;2022-10-26T12:13:33;1.67;;;1.40;;
10947;SDS011;5526;42.070;24.752;2022-10-26T12:16:07;3.70;;;1.83;;
10947;SDS011;5526;42.070;24.752;2022-10-26T12:18:42;2.05;;;1.50;;
10947;SDS011;5526;42.070;24.752;2022-10-26T12:21:17;3.03;;;1.58;;
10947;SDS011;5526;42.070;24.752;2022-10-26T12:26:52;6.65;;;1.55;;
10947;SDS011;5526;42.070;24.752;2022-10-26T12:29:28;2.03;;;1.70;;
10947;SDS011;5526;42.070;24.752;2022-10-26T12:35:36;2.42;;;1.30;;
10947;SDS011;5526;42.070;24.752;2022-10-26T12:41:22;2.20;;;1.80;;
10947;SDS011;5526;42.070;24.752;2022-10-26T12:44:01;2.08;;;1.55;;
10947;SDS011;5526;42.070;24.752;2022-10-26T12:46:53;1.83;;;1.70;;
10947;SDS011;5526;42.070;24.752;2022-10-26T12:52:47;4.35;;;1.70;;
10947;SDS011;5526;42.070;24.752;2022-10-26T12:58:32;4.07;;;1.70;;
10947;SDS011;5526;42.070;24.752;2022-10-26T13:01:23;5.10;;;1.90;;
10947;SDS011;5526;42.070;24.752;2022-10-26T13:04:13;5.40;;;2.00;;
10947;SDS011;5526;42.070;24.752;2022-10-26T13:09:43;2.10;;;1.60;;
10947;SDS011;5526;42.070;24.752;2022-10-26T13:12:18;5.93;;;2.20;;
10947;SDS011;5526;42.070;24.752;2022-10-26T13:14:54;5.68;;;2.50;;
10947;SDS011;5526;42.070;24.752;2022-10-26T13:17:30;4.07;;;1.98;;
10947;SDS011;5526;42.070;24.752;2022-10-26T13:19:59;10.23;;;2.75;;
10947;SDS011;5526;42.070;24.752;2022-10-26T13:22:28;2.90;;;1.98;;
10947;SDS011;5526;42.070;24.752;2022-10-26T13:24:57;6.35;;;1.77;;
10947;SDS011;5526;42.070;24.752;2022-10-26T13:30:20;3.88;;;1.75;;
10947;SDS011;5526;42.070;24.752;2022-10-26T13:33:06;3.53;;;2.17;;
10947;SDS011;5526;42.070;24.752;2022-10-26T13:35:40;2.15;;;1.90;;
10947;SDS011;5526;42.070;24.752;2022-10-26T13:38:09;6.18;;;1.98;;
10947;SDS011;5526;42.070;24.752;2022-10-26T13:40:39;5.35;;;2.10;;
10947;SDS011;5526;42.070;24.752;2022-10-26T13:43:10;5.22;;;1.88;;
10947;SDS011;5526;42.070;24.752;2022-10-26T13:45:48;9.10;;;2.10;;
10947;SDS011;5526;42.070;24.752;2022-10-26T13:48:22;2.40;;;1.88;;
10947;SDS011;5526;42.070;24.752;2022-10-26T13:50:58;6.07;;;2.25;;
10947;SDS011;5526;42.070;24.752;2022-10-26T13:53:31;4.10;;;2.03;;
10947;SDS011;5526;42.070;24.752;2022-10-26T13:56:06;5.68;;;2.08;;
10947;SDS011;5526;42.070;24.752;2022-10-26T13:58:44;3.55;;;2.10;;
10947;SDS011;5526;42.070;24.752;2022-10-26T14:01:17;3.90;;;2.05;;
10947;SDS011;5526;42.070;24.752;2022-10-26T14:03:50;7.15;;;2.58;;
10947;SDS011;5526;42.070;24.752;2022-10-26T14:06:19;6.95;;;2.55;;
10947;SDS011;5526;42.070;24.752;2022-10-26T14:08:52;7.30;;;2.15;;
10947;SDS011;5526;42.070;24.752;2022-10-26T14:11:26;4.68;;;2.03;;
10947;SDS011;5526;42.070;24.752;2022-10-26T14:13:59;3.90;;;2.10;;
10947;SDS011;5526;42.070;24.752;2022-10-26T14:16:30;3.80;;;2.75;;
10947;SDS011;5526;42.070;24.752;2022-10-26T14:19:00;5.72;;;3.28;;
10947;SDS011;5526;42.070;24.752;2022-10-26T14:21:29;8.02;;;3.40;;
10947;SDS011;5526;42.070;24.752;2022-10-26T14:23:57;4.97;;;2.83;;
10947;SDS011;5526;42.070;24.752;2022-10-26T14:26:29;3.42;;;1.98;;
10947;SDS011;5526;42.070;24.752;2022-10-26T14:29:12;5.18;;;2.17;;
10947;SDS011;5526;42.070;24.752;2022-10-26T14:31:45;4.03;;;1.92;;
10947;SDS011;5526;42.070;24.752;2022-10-26T14:34:14;4.63;;;1.92;;
10947;SDS011;5526;42.070;24.752;2022-10-26T14:36:43;5.40;;;2.30;;
10947;SDS011;5526;42.070;24.752;2022-10-26T14:39:16;5.50;;;1.95;;
10947;SDS011;5526;42.070;24.752;2022-10-26T14:41:49;3.92;;;2.38;;
10947;SDS011;5526;42.070;24.752;2022-10-26T14:44:21;6.30;;;2.20;;
10947;SDS011;5526;42.070;24.752;2022-10-26T14:46:51;2.92;;;1.95;;
10947;SDS011;5526;42.070;24.752;2022-10-26T14:49:20;7.82;;;2.22;;
10947;SDS011;5526;42.070;24.752;2022-10-26T14:51:54;7.40;;;1.95;;
10947;SDS011;5526;42.070;24.752;2022-10-26T14:54:24;8.15;;;2.00;;
10947;SDS011;5526;42.070;24.752;2022-10-26T14:56:53;4.35;;;1.80;;
10947;SDS011;5526;42.070;24.752;2022-10-26T14:59:21;4.95;;;2.00;;
10947;SDS011;5526;42.070;24.752;2022-10-26T15:01:54;5.20;;;2.00;;
10947;SDS011;5526;42.070;24.752;2022-10-26T15:04:29;11.02;;;2.45;;
10947;SDS011;5526;42.070;24.752;2022-10-26T15:07:14;8.70;;;2.20;;
10947;SDS011;5526;42.070;24.752;2022-10-26T15:09:44;5.32;;;1.80;;
10947;SDS011;5526;42.070;24.752;2022-10-26T15:14:59;8.13;;;1.98;;
10947;SDS011;5526;42.070;24.752;2022-10-26T15:17:47;8.00;;;2.28;;
10947;SDS011;5526;42.070;24.752;2022-10-26T15:20:17;5.78;;;1.77;;
10947;SDS011;5526;42.070;24.752;2022-10-26T15:22:50;7.50;;;1.80;;
10947;SDS011;5526;42.070;24.752;2022-10-26T15:25:21;9.13;;;2.10;;
10947;SDS011;5526;42.070;24.752;2022-10-26T15:27:51;17.08;;;2.30;;
10947;SDS011;5526;42.070;24.752;2022-10-26T15:30:21;6.95;;;2.30;;
10947;SDS011;5526;42.070;24.752;2022-10-26T15:32:52;10.38;;;2.35;;
10947;SDS011;5526;42.070;24.752;2022-10-26T15:35:22;18.63;;;3.03;;
10947;SDS011;5526;42.070;24.752;2022-10-26T15:37:53;16.02;;;2.55;;
10947;SDS011;5526;42.070;24.752;2022-10-26T15:40:22;14.18;;;3.05;;